Disclaimer

Please do not use the information listed here in-flight or in-navigation, as they are not provided to us by the airports but are provided by volunteers, so they might be outdated.

Search


Regions


Airport information page

Radio informations:
INFO - 124.475 MHz

Airport informations:
Latitude: 58° 12' 15.17" N
Longitude: 008° 05' 07.33" E
Elevation: 57 feet - 17 meters
Operating hours: Remarks
Operating agency: Civil government, landing fees and diplomatic clearance may be required
Timezone: UTC+1(+2DT) - Last Sunday in March to last Sunday in October
Fuel: Jet A1+, Jet A1 with icing inhibitor.

100/130 MIL Spec, low lead, aviation gasoline (BLUE)

Runway information:
04/22 - 6660 x 148 feet< - >2030 x 45 meters

Recent METARs:
ENCN 151220Z 05007KT 9999 SCT025 BKN055 01/01 Q1029
ENCN 151250Z 05007KT 9999 FEW004 BKN029 01/01 Q1029
ENCN 151320Z 06007KT 9999 FEW006 SCT024 BKN048 01/01 Q1029

Airport on the map: